Time;durP1;ratioP1;P1;durP2;ratioP2;P2;SDS_P1;SDS_P2;PMS_P1;PMS_P2;Temp;Humidity;BMP_temperature;BMP_pressure;BME280_temperature;BME280_humidity;BME280_pressure;Samples;Min_cycle;Max_cycle;Signal;HPM_P1;HPM_P2
2023/05/31 00:00:11;;;;;;;4.03;2.80;;;23.10;68.10;;;;;;6048864;28;94250;-69
2023/05/31 00:03:13;;;;;;;4.10;2.85;;;23.10;67.60;;;;;;6057209;28;94304;-69
2023/05/31 00:06:15;;;;;;;4.90;2.72;;;23.10;67.10;;;;;;6051164;28;94212;-69
2023/05/31 00:09:18;;;;;;;4.18;3.03;;;23.10;66.80;;;;;;6038387;28;94480;-69
2023/05/31 00:12:21;;;;;;;3.95;2.70;;;23.00;66.40;;;;;;6055601;28;94133;-68
2023/05/31 00:15:23;;;;;;;3.28;2.78;;;23.00;66.40;;;;;;6047323;28;93381;-68
2023/05/31 00:18:25;;;;;;;3.60;2.60;;;23.00;66.20;;;;;;6050517;28;94113;-69
2023/05/31 00:21:27;;;;;;;2.92;2.60;;;23.00;66.40;;;;;;6036454;28;94190;-69
2023/05/31 00:24:31;;;;;;;3.05;2.60;;;23.00;65.90;;;;;;6051497;28;94300;-69
2023/05/31 00:27:33;;;;;;;3.78;2.65;;;23.00;66.10;;;;;;6046585;28;94534;-69
2023/05/31 00:30:35;;;;;;;4.10;2.78;;;23.00;66.40;;;;;;6057225;28;94143;-68
2023/05/31 00:33:37;;;;;;;4.20;2.63;;;23.00;66.40;;;;;;6058494;28;94147;-68
2023/05/31 00:36:39;;;;;;;3.65;2.53;;;23.00;66.00;;;;;;6043187;28;94224;-69
2023/05/31 00:39:42;;;;;;;3.50;2.80;;;22.90;66.10;;;;;;6054229;28;94159;-69
2023/05/31 00:42:44;;;;;;;4.15;2.88;;;22.90;65.90;;;;;;6055977;28;94080;-69
2023/05/31 00:45:46;;;;;;;3.47;2.53;;;22.90;66.10;;;;;;6044985;28;95050;-68
2023/05/31 00:48:48;;;;;;;3.38;2.40;;;22.90;66.50;;;;;;6049867;28;92985;-69
2023/05/31 00:51:51;;;;;;;3.13;2.42;;;22.90;66.60;;;;;;6045954;28;93446;-69
2023/05/31 00:54:55;;;;;;;4.25;2.78;;;22.90;66.70;;;;;;6050099;28;95061;-68
2023/05/31 00:57:58;;;;;;;3.92;2.50;;;22.90;66.70;;;;;;6057427;28;94165;-69
2023/05/31 01:01:00;;;;;;;4.68;2.95;;;22.90;66.70;;;;;;6049638;28;94176;-68
2023/05/31 01:04:02;;;;;;;4.05;2.50;;;22.90;66.40;;;;;;6057213;28;96676;-69
2023/05/31 01:07:05;;;;;;;4.55;2.70;;;22.90;66.10;;;;;;6049410;28;94085;-69
2023/05/31 01:10:09;;;;;;;3.80;2.72;;;22.90;65.80;;;;;;6057972;28;94049;-69
2023/05/31 01:13:21;;;;;;;3.10;2.60;;;22.90;65.60;;;;;;6056946;28;94248;-69
2023/05/31 01:16:32;;;;;;;4.78;2.95;;;22.90;65.50;;;;;;6058690;28;93483;-69
2023/05/31 01:19:47;;;;;;;3.35;2.70;;;22.80;65.40;;;;;;6053159;28;94134;-69
2023/05/31 01:23:04;;;;;;;3.78;2.70;;;22.90;65.30;;;;;;6053917;28;94428;-69
2023/05/31 01:26:33;;;;;;;4.93;3.40;;;22.80;65.10;;;;;;6056251;28;95315;-69
2023/05/31 01:29:36;;;;;;;4.32;3.03;;;22.80;65.20;;;;;;6056690;28;93179;-69
2023/05/31 01:32:39;;;;;;;5.47;3.00;;;22.80;65.20;;;;;;6057503;28;94608;-68
2023/05/31 01:35:41;;;;;;;4.25;2.90;;;22.80;65.30;;;;;;6047889;28;94391;-69
2023/05/31 01:38:43;;;;;;;4.10;2.90;;;22.80;65.50;;;;;;6054917;28;94186;-68
2023/05/31 01:41:47;;;;;;;3.67;2.95;;;22.80;66.00;;;;;;6049201;28;94302;-69
2023/05/31 01:44:51;;;;;;;3.47;2.75;;;22.80;66.60;;;;;;6052695;28;92984;-68
2023/05/31 01:48:04;;;;;;;4.63;2.90;;;22.80;66.60;;;;;;6052982;28;93433;-69
2023/05/31 01:51:09;;;;;;;3.88;3.08;;;22.80;66.70;;;;;;6058239;28;94326;-68
2023/05/31 01:54:11;;;;;;;3.40;2.90;;;22.80;66.90;;;;;;6043123;28;94214;-69
2023/05/31 01:57:16;;;;;;;4.10;2.90;;;22.80;66.90;;;;;;6051940;28;95157;-69
2023/05/31 02:00:19;;;;;;;3.55;2.70;;;22.80;66.50;;;;;;6053152;28;94132;-68
2023/05/31 02:03:22;;;;;;;3.70;3.05;;;22.80;66.30;;;;;;6045171;28;94119;-69
2023/05/31 02:06:26;;;;;;;6.63;3.65;;;22.80;66.40;;;;;;6056009;28;94513;-69
2023/05/31 02:09:28;;;;;;;4.85;3.45;;;22.80;66.40;;;;;;6057257;28;95662;-69
2023/05/31 02:12:32;;;;;;;3.72;3.40;;;22.80;66.10;;;;;;6048315;28;94104;-69
2023/05/31 02:15:36;;;;;;;4.70;3.38;;;22.80;66.00;;;;;;6055428;28;93945;-69
2023/05/31 02:18:38;;;;;;;3.40;2.97;;;22.80;66.10;;;;;;6058441;28;94281;-69
2023/05/31 02:21:46;;;;;;;4.30;3.08;;;22.80;66.20;;;;;;6044253;28;94285;-69
2023/05/31 02:24:48;;;;;;;4.00;3.35;;;22.70;66.10;;;;;;6056137;28;94340;-69
2023/05/31 02:27:52;;;;;;;4.97;3.35;;;22.70;66.20;;;;;;6058775;28;95048;-70
2023/05/31 02:30:55;;;;;;;4.32;3.08;;;22.70;66.20;;;;;;6057080;28;94192;-69
2023/05/31 02:33:57;;;;;;;4.18;3.13;;;22.70;66.60;;;;;;6056313;28;94333;-69
2023/05/31 02:36:59;;;;;;;4.53;3.17;;;22.70;67.00;;;;;;6057360;28;94030;-69
2023/05/31 02:40:06;;;;;;;3.83;3.10;;;22.70;68.00;;;;;;6059809;28;94196;-69
2023/05/31 02:43:10;;;;;;;6.53;3.72;;;22.70;67.20;;;;;;6059745;28;94101;-69
2023/05/31 02:46:12;;;;;;;4.32;3.20;;;22.70;67.30;;;;;;6050096;28;94196;-68
2023/05/31 02:49:14;;;;;;;4.88;3.67;;;22.70;67.30;;;;;;6053349;28;93431;-69
2023/05/31 02:52:16;;;;;;;6.55;3.60;;;22.70;67.10;;;;;;6059579;28;94540;-69
2023/05/31 02:55:18;;;;;;;4.75;3.40;;;22.70;67.10;;;;;;6057524;28;94092;-69
2023/05/31 02:58:21;;;;;;;4.15;3.22;;;22.70;66.90;;;;;;6059896;28;95106;-69
2023/05/31 03:01:23;;;;;;;5.53;3.58;;;22.70;66.90;;;;;;6049535;28;94201;-69
2023/05/31 03:04:26;;;;;;;5.00;4.05;;;22.70;66.80;;;;;;6060135;28;94513;-69
2023/05/31 03:07:28;;;;;;;4.85;3.65;;;22.70;66.90;;;;;;6054786;28;94220;-69
2023/05/31 03:10:30;;;;;;;4.30;3.47;;;22.70;66.90;;;;;;6056035;28;94345;-69
2023/05/31 03:13:34;;;;;;;8.25;4.50;;;22.70;66.80;;;;;;6044981;28;93095;-68
2023/05/31 03:16:36;;;;;;;4.93;3.60;;;22.70;66.70;;;;;;6061311;28;94179;-68
2023/05/31 03:19:38;;;;;;;4.95;3.65;;;22.70;66.90;;;;;;6059358;28;94970;-69
2023/05/31 03:22:40;;;;;;;4.50;3.65;;;22.60;66.80;;;;;;6061026;28;94169;-69
2023/05/31 03:25:42;;;;;;;4.68;3.63;;;22.70;66.70;;;;;;6059277;28;94382;-68
2023/05/31 03:28:45;;;;;;;4.45;3.50;;;22.70;66.90;;;;;;6045844;28;95151;-69
2023/05/31 03:31:47;;;;;;;3.88;3.05;;;22.60;67.40;;;;;;6058860;28;94142;-68
2023/05/31 03:34:50;;;;;;;4.03;3.40;;;22.70;67.60;;;;;;6058719;28;95673;-69
2023/05/31 03:37:53;;;;;;;3.88;3.17;;;22.60;67.60;;;;;;6057691;28;94128;-69
2023/05/31 03:40:55;;;;;;;4.68;3.58;;;22.70;67.70;;;;;;6048164;28;94445;-69
2023/05/31 03:43:58;;;;;;;4.13;3.40;;;22.60;67.70;;;;;;6054685;28;94136;-68
2023/05/31 03:47:00;;;;;;;4.20;3.13;;;22.70;67.40;;;;;;6053964;28;94802;-68
2023/05/31 03:50:02;;;;;;;4.07;3.28;;;22.70;67.20;;;;;;6054651;28;94284;-68
2023/05/31 03:53:04;;;;;;;4.45;3.70;;;22.60;67.20;;;;;;6050226;28;94124;-69
2023/05/31 03:56:07;;;;;;;4.72;3.90;;;22.60;67.20;;;;;;6057826;28;94530;-69
2023/05/31 03:59:10;;;;;;;4.47;3.60;;;22.60;67.10;;;;;;6057941;28;95071;-68
2023/05/31 04:02:12;;;;;;;5.15;3.80;;;22.60;67.10;;;;;;6047570;28;94283;-68
2023/05/31 04:05:14;;;;;;;4.32;3.45;;;22.60;66.90;;;;;;6058826;28;94194;-69
2023/05/31 04:08:16;;;;;;;5.18;3.78;;;22.60;67.10;;;;;;6049831;28;94187;-68
2023/05/31 04:11:18;;;;;;;5.25;3.70;;;22.60;67.10;;;;;;6048401;28;94110;-69
2023/05/31 04:14:22;;;;;;;5.93;4.22;;;22.60;67.10;;;;;;6050055;28;94129;-68
2023/05/31 04:17:24;;;;;;;5.72;3.63;;;22.60;67.00;;;;;;6051482;28;94399;-68
2023/05/31 04:20:26;;;;;;;5.00;3.97;;;22.60;67.00;;;;;;6058478;28;93475;-69
2023/05/31 04:23:28;;;;;;;6.10;3.63;;;22.60;67.10;;;;;;6057201;28;94093;-69
2023/05/31 04:26:32;;;;;;;5.18;3.95;;;22.60;67.40;;;;;;6058041;28;94088;-68
2023/05/31 04:29:35;;;;;;;5.68;3.80;;;22.60;67.60;;;;;;6056731;28;95077;-69
2023/05/31 04:32:38;;;;;;;4.38;3.95;;;22.60;67.70;;;;;;6041906;28;92930;-69
2023/05/31 04:35:40;;;;;;;4.90;3.67;;;22.60;67.70;;;;;;6051375;28;94056;-68
2023/05/31 04:38:42;;;;;;;4.78;4.18;;;22.60;67.90;;;;;;6059844;28;94235;-69
2023/05/31 04:41:44;;;;;;;4.47;3.58;;;22.60;67.90;;;;;;6049134;28;94190;-69
2023/05/31 04:44:49;;;;;;;5.93;3.97;;;22.60;67.90;;;;;;6043379;28;94089;-69
2023/05/31 04:47:51;;;;;;;5.53;4.40;;;22.60;67.70;;;;;;6045908;28;93072;-69
2023/05/31 04:50:54;;;;;;;8.15;4.20;;;22.60;67.70;;;;;;6048762;28;93808;-69
2023/05/31 04:53:56;;;;;;;5.07;3.50;;;22.60;67.70;;;;;;6050234;28;94180;-69
2023/05/31 04:57:01;;;;;;;5.25;3.60;;;22.60;67.60;;;;;;6058494;28;94091;-69
2023/05/31 05:00:10;;;;;;;4.32;3.70;;;22.60;67.50;;;;;;6057201;28;95099;-68
2023/05/31 05:03:12;;;;;;;5.32;3.80;;;22.60;67.60;;;;;;6057215;28;94328;-69
2023/05/31 05:06:15;;;;;;;4.13;3.70;;;22.70;67.60;;;;;;6046127;28;94141;-68
2023/05/31 05:09:17;;;;;;;5.50;3.90;;;22.60;67.40;;;;;;6057300;28;93175;-68
2023/05/31 05:12:19;;;;;;;4.18;3.53;;;22.70;67.60;;;;;;6045967;28;94237;-68
2023/05/31 05:15:23;;;;;;;7.05;3.60;;;22.70;67.60;;;;;;6057721;28;94177;-68
2023/05/31 05:18:25;;;;;;;5.55;3.63;;;22.70;67.60;;;;;;6051387;28;92967;-67
2023/05/31 05:21:28;;;;;;;4.65;3.30;;;22.70;67.70;;;;;;6049236;28;95246;-68
2023/05/31 05:24:30;;;;;;;5.85;3.40;;;22.70;67.30;;;;;;6051975;28;94268;-68
2023/05/31 05:27:32;;;;;;;5.18;3.28;;;22.70;70.90;;;;;;6054215;28;94605;-68
2023/05/31 05:30:38;;;;;;;4.65;3.30;;;22.70;68.80;;;;;;6055264;28;95058;-68
2023/05/31 05:33:40;;;;;;;4.18;3.05;;;22.80;69.00;;;;;;6048647;28;94300;-69
2023/05/31 05:36:42;;;;;;;5.57;3.83;;;22.80;68.90;;;;;;6048500;28;95952;-69
2023/05/31 05:39:44;;;;;;;4.65;3.45;;;22.80;68.80;;;;;;6046500;28;94480;-69
2023/05/31 05:42:46;;;;;;;5.05;3.65;;;22.90;68.70;;;;;;6044405;28;94142;-69
2023/05/31 05:45:50;;;;;;;4.00;3.42;;;22.90;68.50;;;;;;6048396;28;94145;-69
2023/05/31 05:48:52;;;;;;;5.65;3.20;;;22.90;68.40;;;;;;6053275;28;94237;-69
2023/05/31 05:51:54;;;;;;;4.63;2.85;;;22.90;69.40;;;;;;6045489;28;93690;-69
2023/05/31 05:54:56;;;;;;;5.88;3.22;;;22.90;67.70;;;;;;6054408;28;94171;-69
2023/05/31 05:57:58;;;;;;;4.75;3.58;;;22.90;67.20;;;;;;6055941;28;94173;-69
2023/05/31 06:01:02;;;;;;;6.07;3.42;;;22.90;67.10;;;;;;6055936;28;95169;-69
2023/05/31 06:04:05;;;;;;;5.68;3.38;;;22.90;66.70;;;;;;6057563;28;94191;-69
2023/05/31 06:07:07;;;;;;;4.57;3.15;;;22.80;66.40;;;;;;6059733;28;94308;-69
2023/05/31 06:10:10;;;;;;;4.18;3.03;;;22.80;66.40;;;;;;6058149;28;94037;-69
2023/05/31 06:13:12;;;;;;;5.30;3.33;;;22.90;66.40;;;;;;6059084;28;94201;-69
2023/05/31 06:16:16;;;;;;;4.75;2.88;;;22.80;66.20;;;;;;6061754;28;94148;-69
2023/05/31 06:19:18;;;;;;;4.57;3.10;;;22.80;66.40;;;;;;6058357;28;94735;-70
2023/05/31 06:22:20;;;;;;;5.30;2.88;;;22.80;66.60;;;;;;6060519;28;93349;-69
2023/05/31 06:25:23;;;;;;;5.85;3.05;;;22.80;66.70;;;;;;6060596;28;94076;-69
2023/05/31 06:28:25;;;;;;;5.65;2.83;;;22.80;66.90;;;;;;6054835;28;94109;-69
2023/05/31 06:31:28;;;;;;;5.90;3.20;;;22.80;67.00;;;;;;6059951;28;95325;-69
2023/05/31 06:34:30;;;;;;;5.80;3.25;;;22.90;67.30;;;;;;6058349;28;94299;-69
2023/05/31 06:37:32;;;;;;;8.13;3.88;;;22.80;67.40;;;;;;6038164;28;94022;-69
2023/05/31 06:40:36;;;;;;;6.00;3.08;;;22.80;67.60;;;;;;6055088;28;94108;-69
2023/05/31 06:43:38;;;;;;;4.13;2.90;;;22.80;67.70;;;;;;6043302;28;94156;-69
2023/05/31 06:46:41;;;;;;;6.82;3.00;;;22.90;67.90;;;;;;6042537;28;93019;-69
2023/05/31 06:49:43;;;;;;;5.90;3.10;;;22.80;68.10;;;;;;6060421;28;94530;-69
2023/05/31 06:52:45;;;;;;;5.75;3.08;;;22.80;68.20;;;;;;6049823;28;92353;-69
2023/05/31 06:55:47;;;;;;;4.43;2.95;;;22.80;68.30;;;;;;6059941;28;95517;-69
2023/05/31 06:58:49;;;;;;;4.53;3.50;;;22.80;68.40;;;;;;6058726;28;94031;-69
2023/05/31 07:01:54;;;;;;;4.18;3.00;;;22.80;68.60;;;;;;6051144;28;95391;-69
2023/05/31 07:04:55;;;;;;;3.60;3.17;;;22.80;68.80;;;;;;6043859;28;94510;-69
2023/05/31 07:07:57;;;;;;;4.47;3.30;;;22.80;68.90;;;;;;6054690;28;94146;-69
2023/05/31 07:11:00;;;;;;;4.45;3.13;;;22.80;68.90;;;;;;6053120;28;94460;-69
2023/05/31 07:14:02;;;;;;;4.43;3.17;;;22.80;69.10;;;;;;6055864;28;96508;-69
2023/05/31 07:17:06;;;;;;;5.03;3.30;;;22.90;69.30;;;;;;6049494;28;94022;-69
2023/05/31 07:20:09;;;;;;;4.22;3.30;;;22.80;69.20;;;;;;6040851;28;94234;-69
2023/05/31 07:23:11;;;;;;;4.13;3.00;;;22.80;69.30;;;;;;6059711;28;95056;-69
2023/05/31 07:26:15;;;;;;;4.72;3.20;;;22.80;69.40;;;;;;6054230;28;94100;-70
2023/05/31 07:29:17;;;;;;;4.10;3.10;;;22.80;69.50;;;;;;6051724;28;94312;-69
2023/05/31 07:32:21;;;;;;;4.47;3.28;;;22.90;69.80;;;;;;6058425;28;95098;-69
2023/05/31 07:35:23;;;;;;;5.22;3.35;;;22.80;69.80;;;;;;6056210;28;93194;-69
2023/05/31 07:38:25;;;;;;;5.32;3.55;;;22.80;70.00;;;;;;6043679;28;94383;-69
2023/05/31 07:41:27;;;;;;;4.38;3.33;;;22.80;70.00;;;;;;6052916;28;94100;-69
2023/05/31 07:44:29;;;;;;;4.90;3.22;;;22.80;70.10;;;;;;6044319;28;94125;-69
2023/05/31 07:47:33;;;;;;;3.47;2.92;;;22.80;70.20;;;;;;6059181;28;94125;-69
2023/05/31 07:50:35;;;;;;;5.10;3.30;;;22.80;70.30;;;;;;6048922;28;94072;-69
2023/05/31 07:53:37;;;;;;;3.40;3.00;;;22.80;70.30;;;;;;6053561;28;93335;-69
2023/05/31 07:56:40;;;;;;;3.90;3.10;;;22.80;70.50;;;;;;6058617;28;94322;-70
2023/05/31 07:59:42;;;;;;;4.20;3.38;;;22.80;70.50;;;;;;6038430;28;94425;-69
2023/05/31 08:02:45;;;;;;;4.32;3.40;;;22.80;71.50;;;;;;6039947;28;95095;-69
2023/05/31 08:05:48;;;;;;;3.65;3.35;;;22.80;70.60;;;;;;6058884;28;94320;-69
2023/05/31 08:08:50;;;;;;;5.80;3.70;;;22.90;70.70;;;;;;6056972;28;94233;-69
2023/05/31 08:11:53;;;;;;;4.90;3.38;;;22.80;70.60;;;;;;6036820;28;94148;-69
2023/05/31 08:14:55;;;;;;;4.68;3.50;;;22.90;70.80;;;;;;6056312;28;94488;-69
2023/05/31 08:17:59;;;;;;;4.35;3.38;;;22.80;70.80;;;;;;6054121;28;94545;-69
2023/05/31 08:21:01;;;;;;;4.15;3.33;;;22.80;70.80;;;;;;6049722;28;94569;-69
2023/05/31 08:24:03;;;;;;;3.25;2.92;;;22.80;70.90;;;;;;6048053;28;93461;-69
2023/05/31 08:27:06;;;;;;;4.15;3.33;;;22.80;71.00;;;;;;6044679;28;94184;-69
2023/05/31 08:30:10;;;;;;;4.45;3.17;;;22.90;71.10;;;;;;6058205;28;94431;-69
2023/05/31 08:33:13;;;;;;;4.47;3.58;;;22.90;71.30;;;;;;6047324;28;95506;-69
2023/05/31 08:36:15;;;;;;;5.53;3.15;;;22.80;71.30;;;;;;6040416;28;94121;-69
2023/05/31 08:39:17;;;;;;;4.32;3.05;;;22.90;71.50;;;;;;6057157;28;94666;-68
2023/05/31 08:42:25;;;;;;;3.38;3.08;;;22.80;71.50;;;;;;6058478;28;94202;-69
2023/05/31 08:45:29;;;;;;;3.78;3.15;;;22.80;71.60;;;;;;6055315;28;93012;-69
2023/05/31 08:48:44;;;;;;;3.25;2.95;;;22.80;71.80;;;;;;6055361;28;94105;-69
2023/05/31 08:51:48;;;;;;;3.95;3.20;;;22.80;72.00;;;;;;6055625;28;94185;-69
2023/05/31 08:54:51;;;;;;;4.93;3.08;;;22.90;72.30;;;;;;6051979;28;92395;-69
2023/05/31 08:57:53;;;;;;;3.97;3.30;;;22.80;72.30;;;;;;6055380;28;94735;-69
2023/05/31 09:00:55;;;;;;;5.00;3.40;;;22.80;72.10;;;;;;6056270;28;94178;-68
2023/05/31 09:04:00;;;;;;;4.38;3.40;;;22.90;72.10;;;;;;6055515;28;95447;-69
2023/05/31 09:07:02;;;;;;;3.65;2.70;;;22.80;72.10;;;;;;6047928;28;94434;-69
2023/05/31 09:10:06;;;;;;;3.45;3.10;;;22.90;72.20;;;;;;6036668;28;94002;-69
2023/05/31 09:13:09;;;;;;;3.47;3.17;;;22.80;72.20;;;;;;6022857;28;93798;-69
2023/05/31 09:16:12;;;;;;;3.90;3.25;;;22.80;72.20;;;;;;6058088;28;94321;-68
2023/05/31 09:19:15;;;;;;;4.25;3.45;;;22.90;72.60;;;;;;6051536;28;94224;-69
2023/05/31 09:22:17;;;;;;;3.13;2.78;;;22.80;72.80;;;;;;6058174;28;94120;-69
2023/05/31 09:25:19;;;;;;;3.67;3.22;;;22.80;72.90;;;;;;6054632;28;93620;-69
2023/05/31 09:28:23;;;;;;;4.10;3.22;;;22.90;73.10;;;;;;6051414;28;94212;-70
2023/05/31 09:31:25;;;;;;;3.83;3.13;;;22.80;74.00;;;;;;6054406;28;94052;-69
2023/05/31 09:34:29;;;;;;;4.30;3.10;;;22.80;73.20;;;;;;6056904;28;95090;-69
2023/05/31 09:37:31;;;;;;;3.50;3.13;;;22.80;73.20;;;;;;6047476;28;94152;-69
2023/05/31 09:40:34;;;;;;;4.43;3.28;;;22.80;73.30;;;;;;6053226;28;94129;-69
2023/05/31 09:43:40;;;;;;;4.82;3.20;;;22.80;73.30;;;;;;6050689;28;97304;-69
2023/05/31 09:46:42;;;;;;;3.47;3.13;;;22.80;73.30;;;;;;6046970;28;94431;-69
2023/05/31 09:49:48;;;;;;;6.03;3.88;;;22.80;73.40;;;;;;6044805;28;94163;-69
2023/05/31 09:52:55;;;;;;;3.92;3.45;;;22.80;73.40;;;;;;6046135;28;94018;-68
2023/05/31 09:55:58;;;;;;;4.45;3.25;;;22.80;73.30;;;;;;6055575;28;92328;-69
2023/05/31 09:59:03;;;;;;;4.03;3.00;;;22.80;73.20;;;;;;6041968;28;94088;-69
2023/05/31 10:02:05;;;;;;;4.35;3.30;;;22.80;73.00;;;;;;6056361;28;94130;-69
2023/05/31 10:05:10;;;;;;;4.75;3.30;;;22.80;73.00;;;;;;6042471;28;95062;-69
2023/05/31 10:08:12;;;;;;;4.68;3.60;;;22.80;73.00;;;;;;6052481;28;94087;-69
2023/05/31 10:11:18;;;;;;;3.88;3.15;;;22.80;73.20;;;;;;6057103;28;94117;-69
2023/05/31 10:14:25;;;;;;;4.43;3.17;;;22.80;73.50;;;;;;6040721;28;94404;-69
2023/05/31 10:17:30;;;;;;;4.55;3.20;;;22.80;73.70;;;;;;6047717;28;94075;-69
2023/05/31 10:20:39;;;;;;;3.63;3.00;;;22.80;73.80;;;;;;6049190;28;94448;-69
2023/05/31 10:23:46;;;;;;;4.07;3.20;;;22.80;73.80;;;;;;6055312;28;94315;-69
2023/05/31 10:27:00;;;;;;;4.15;3.35;;;22.80;73.80;;;;;;6054900;28;93324;-69
2023/05/31 10:30:04;;;;;;;4.78;3.35;;;22.90;73.80;;;;;;6045373;28;94080;-68
2023/05/31 10:33:08;;;;;;;5.15;3.45;;;22.90;73.90;;;;;;6044498;28;92991;-69
2023/05/31 10:36:12;;;;;;;4.85;3.13;;;22.80;73.90;;;;;;6045971;28;95166;-69
2023/05/31 10:39:20;;;;;;;3.67;3.10;;;22.80;74.10;;;;;;6054876;28;94587;-69
2023/05/31 10:42:40;;;;;;;3.47;3.10;;;22.80;74.00;;;;;;6053785;28;94569;-69
2023/05/31 10:45:46;;;;;;;3.78;3.10;;;22.80;74.00;;;;;;6054394;28;93927;-69
2023/05/31 10:48:54;;;;;;;3.53;3.00;;;22.80;74.00;;;;;;6053982;28;94330;-69
2023/05/31 10:52:05;;;;;;;3.40;3.10;;;22.80;73.80;;;;;;6056095;28;95089;-69
2023/05/31 10:55:18;;;;;;;4.32;3.13;;;22.80;73.70;;;;;;6058585;28;94321;-69
2023/05/31 10:58:27;;;;;;;4.07;3.25;;;22.80;73.60;;;;;;6055946;28;93332;-69
2023/05/31 11:01:30;;;;;;;3.55;2.97;;;22.90;73.70;;;;;;6040342;28;94052;-69
2023/05/31 11:04:32;;;;;;;4.10;3.30;;;22.80;73.70;;;;;;6047941;28;95820;-70
2023/05/31 11:07:35;;;;;;;3.85;2.90;;;22.80;73.70;;;;;;6050011;28;94001;-70
2023/05/31 11:10:37;;;;;;;3.45;2.90;;;22.80;74.00;;;;;;6061344;28;94107;-69
2023/05/31 11:13:58;;;;;;;3.40;3.05;;;22.80;74.20;;;;;;6053746;28;94467;-69
2023/05/31 11:17:17;;;;;;;3.30;2.88;;;22.90;74.40;;;;;;6053269;28;94188;-69
2023/05/31 11:20:20;;;;;;;4.05;3.17;;;22.80;74.40;;;;;;6043577;28;94119;-69
2023/05/31 11:23:34;;;;;;;3.30;2.90;;;22.80;74.50;;;;;;6044005;28;95530;-69
2023/05/31 11:26:52;;;;;;;3.92;3.20;;;22.80;74.50;;;;;;6053320;28;94518;-69
2023/05/31 11:29:59;;;;;;;5.95;3.80;;;22.80;74.40;;;;;;6051935;28;93741;-69
2023/05/31 11:33:01;;;;;;;3.55;3.15;;;22.80;74.20;;;;;;6060091;28;94516;-66
2023/05/31 11:36:08;;;;;;;3.65;3.10;;;22.80;74.20;;;;;;6059891;28;94217;-69
2023/05/31 11:39:12;;;;;;;3.53;3.20;;;22.80;74.20;;;;;;6056279;28;95244;-69
2023/05/31 11:42:15;;;;;;;3.40;2.90;;;22.80;74.30;;;;;;6044349;28;94213;-69
2023/05/31 11:45:18;;;;;;;3.67;3.28;;;22.80;74.40;;;;;;6047236;28;93901;-70
2023/05/31 11:48:35;;;;;;;3.58;3.13;;;22.80;74.20;;;;;;6047071;28;94438;-69
2023/05/31 11:51:38;;;;;;;4.25;3.00;;;22.80;74.20;;;;;;6057698;28;94133;-69
2023/05/31 11:54:44;;;;;;;3.33;2.90;;;22.80;74.10;;;;;;6053769;28;94122;-69
2023/05/31 11:57:51;;;;;;;3.10;2.80;;;22.90;74.20;;;;;;6042577;28;94288;-69
2023/05/31 12:00:58;;;;;;;3.42;3.00;;;22.80;74.10;;;;;;6049634;28;93596;-69
2023/05/31 12:04:00;;;;;;;4.00;3.20;;;22.80;74.10;;;;;;6045379;28;94497;-70
2023/05/31 12:07:02;;;;;;;4.63;3.30;;;22.80;74.30;;;;;;6057837;28;94121;-69
2023/05/31 12:10:08;;;;;;;3.67;3.28;;;22.80;74.40;;;;;;6057188;28;95372;-69
2023/05/31 12:13:11;;;;;;;3.50;3.05;;;22.80;74.50;;;;;;6059452;28;94158;-69
2023/05/31 12:16:13;;;;;;;3.38;3.00;;;22.80;74.50;;;;;;6046635;28;92939;-69
2023/05/31 12:19:15;;;;;;;3.33;2.95;;;22.80;74.60;;;;;;6049174;28;94099;-69
2023/05/31 12:22:17;;;;;;;3.35;2.90;;;22.80;74.50;;;;;;6044059;28;94484;-69
2023/05/31 12:25:20;;;;;;;3.70;3.10;;;22.80;74.60;;;;;;6058106;28;93060;-70
2023/05/31 12:28:22;;;;;;;3.55;3.10;;;22.80;74.70;;;;;;6058825;28;94498;-69
2023/05/31 12:31:25;;;;;;;3.30;2.97;;;22.80;74.70;;;;;;6058617;28;93425;-69
2023/05/31 12:34:28;;;;;;;3.70;3.17;;;22.80;74.70;;;;;;6053294;28;94298;-69
2023/05/31 12:37:35;;;;;;;3.65;3.17;;;22.80;74.80;;;;;;6058461;28;93127;-69
2023/05/31 12:40:42;;;;;;;3.45;3.08;;;22.90;74.80;;;;;;6058042;28;95166;-69
2023/05/31 12:43:44;;;;;;;4.75;3.60;;;22.80;74.60;;;;;;6048040;28;94201;-69
2023/05/31 12:46:46;;;;;;;3.70;3.25;;;22.80;74.50;;;;;;6045311;28;94511;-69
2023/05/31 12:49:48;;;;;;;3.67;3.13;;;22.80;74.60;;;;;;6047188;28;94123;-69
2023/05/31 12:52:56;;;;;;;4.60;3.17;;;22.80;74.60;;;;;;6039017;28;94123;-69
2023/05/31 12:56:00;;;;;;;4.43;3.35;;;22.90;74.70;;;;;;6057140;28;94102;-69
2023/05/31 12:59:02;;;;;;;3.33;3.03;;;22.80;74.60;;;;;;6068359;28;94206;-69
2023/05/31 13:02:05;;;;;;;3.88;3.00;;;22.80;74.70;;;;;;6048431;28;93723;-69
2023/05/31 13:05:08;;;;;;;3.80;3.17;;;22.80;74.90;;;;;;6054145;28;93495;-69
2023/05/31 13:08:10;;;;;;;3.70;3.13;;;22.90;75.00;;;;;;6056873;28;94165;-69
2023/05/31 13:11:14;;;;;;;3.90;3.25;;;22.90;75.10;;;;;;6044107;28;95090;-69
2023/05/31 13:14:18;;;;;;;3.88;3.20;;;22.80;75.20;;;;;;6038544;28;94232;-69
2023/05/31 13:17:20;;;;;;;5.07;3.63;;;22.80;75.20;;;;;;6049859;28;94205;-69
2023/05/31 13:20:23;;;;;;;4.25;3.50;;;22.80;75.10;;;;;;6056878;28;94193;-69
2023/05/31 13:23:25;;;;;;;4.10;3.55;;;22.90;75.20;;;;;;6048024;28;94112;-69
2023/05/31 13:26:28;;;;;;;3.47;3.17;;;22.80;75.20;;;;;;6052297;28;94379;-69
2023/05/31 13:29:31;;;;;;;3.53;3.08;;;22.80;75.40;;;;;;6053795;28;94187;-69
2023/05/31 13:32:34;;;;;;;3.58;3.28;;;22.90;75.50;;;;;;6055490;28;93821;-69
2023/05/31 13:35:36;;;;;;;3.40;3.10;;;22.80;75.20;;;;;;6056834;28;94218;-69
2023/05/31 13:38:38;;;;;;;3.53;3.17;;;22.80;75.10;;;;;;6057303;28;94074;-69
2023/05/31 13:41:43;;;;;;;4.63;3.40;;;22.80;75.20;;;;;;6053885;28;95208;-70
2023/05/31 13:44:45;;;;;;;3.50;3.20;;;22.90;75.30;;;;;;6046206;28;94094;-69
2023/05/31 13:47:47;;;;;;;5.22;3.85;;;22.80;75.20;;;;;;6056331;28;94109;-69
2023/05/31 13:50:51;;;;;;;3.95;3.42;;;22.90;75.20;;;;;;6056920;28;94450;-69
2023/05/31 13:53:53;;;;;;;3.70;3.40;;;22.90;75.40;;;;;;6050116;28;94110;-69
2023/05/31 13:56:58;;;;;;;3.72;3.28;;;22.90;75.30;;;;;;6056167;28;94434;-69
2023/05/31 14:00:00;;;;;;;3.40;3.10;;;22.80;75.40;;;;;;6045059;28;94344;-69
2023/05/31 14:03:02;;;;;;;3.20;2.90;;;22.80;75.50;;;;;;6052548;28;93536;-69
2023/05/31 14:06:05;;;;;;;3.28;2.97;;;22.80;75.60;;;;;;6039056;28;94215;-69
2023/05/31 14:09:07;;;;;;;3.15;2.85;;;22.90;75.80;;;;;;6035829;28;94130;-69
2023/05/31 14:12:11;;;;;;;3.50;3.20;;;22.80;75.80;;;;;;6037125;28;95071;-69
2023/05/31 14:15:13;;;;;;;3.92;3.33;;;22.90;76.00;;;;;;6056999;28;94208;-70
2023/05/31 14:18:15;;;;;;;4.20;3.38;;;22.90;76.00;;;;;;6055388;28;94118;-70
2023/05/31 14:21:17;;;;;;;3.80;3.33;;;22.90;76.10;;;;;;6057704;28;94230;-70
2023/05/31 14:24:19;;;;;;;3.20;2.90;;;22.90;76.10;;;;;;6060363;28;94357;-69
2023/05/31 14:27:23;;;;;;;3.40;3.10;;;22.80;76.10;;;;;;6061374;28;94209;-70
2023/05/31 14:30:26;;;;;;;3.33;3.03;;;22.80;76.10;;;;;;6047846;28;94174;-69
2023/05/31 14:33:28;;;;;;;3.47;3.17;;;22.90;75.90;;;;;;6042720;28;93348;-70
2023/05/31 14:36:30;;;;;;;4.07;3.40;;;22.90;75.70;;;;;;6061069;28;94126;-70
2023/05/31 14:39:32;;;;;;;4.10;3.22;;;22.90;75.70;;;;;;6060463;28;94092;-69
2023/05/31 14:42:35;;;;;;;3.30;3.00;;;22.90;75.60;;;;;;6058508;28;95118;-68
2023/05/31 14:45:37;;;;;;;4.18;3.38;;;22.90;75.60;;;;;;6060920;28;94115;-68
2023/05/31 14:48:40;;;;;;;4.45;3.50;;;22.90;75.60;;;;;;6059561;28;94611;-68
2023/05/31 14:51:45;;;;;;;3.42;3.13;;;22.90;75.60;;;;;;6057249;28;94601;-68
2023/05/31 14:54:47;;;;;;;3.15;2.75;;;22.90;75.70;;;;;;6054805;28;94249;-69
2023/05/31 14:57:50;;;;;;;3.30;3.00;;;22.90;76.00;;;;;;6054377;28;94154;-68
2023/05/31 15:00:52;;;;;;;3.35;3.05;;;22.90;76.20;;;;;;6060351;28;96544;-68
2023/05/31 15:03:55;;;;;;;4.28;3.20;;;22.90;76.20;;;;;;6059589;28;93611;-68
2023/05/31 15:06:57;;;;;;;3.35;3.05;;;22.90;76.20;;;;;;6049376;28;94149;-68
2023/05/31 15:09:59;;;;;;;3.40;3.10;;;22.90;76.30;;;;;;6061023;28;94458;-68
2023/05/31 15:13:02;;;;;;;3.40;3.10;;;22.90;76.40;;;;;;6059172;28;95185;-69
2023/05/31 15:16:04;;;;;;;3.60;3.30;;;22.90;76.50;;;;;;6048501;28;94117;-68
2023/05/31 15:19:06;;;;;;;3.30;3.00;;;22.80;76.30;;;;;;6059566;28;94400;-68
2023/05/31 15:22:09;;;;;;;3.50;3.20;;;22.90;76.50;;;;;;6047648;28;94097;-69
2023/05/31 15:25:11;;;;;;;3.50;3.20;;;22.90;76.40;;;;;;6059046;28;94140;-68
2023/05/31 15:28:15;;;;;;;3.85;3.45;;;22.90;76.10;;;;;;6056858;28;94238;-68
2023/05/31 15:31:17;;;;;;;3.60;3.30;;;22.90;75.90;;;;;;6049112;28;94105;-68
2023/05/31 15:34:19;;;;;;;3.72;3.33;;;22.90;75.80;;;;;;6037827;28;93422;-68
2023/05/31 15:37:21;;;;;;;3.47;3.17;;;22.90;75.80;;;;;;6057195;28;94475;-68
2023/05/31 15:40:23;;;;;;;3.80;3.40;;;22.90;75.80;;;;;;6060217;28;94399;-68
2023/05/31 15:43:28;;;;;;;3.72;3.33;;;22.90;75.80;;;;;;6058865;28;95021;-68
2023/05/31 15:46:30;;;;;;;3.70;3.33;;;22.90;75.90;;;;;;6054034;28;94192;-68
2023/05/31 15:49:32;;;;;;;4.00;3.60;;;22.90;75.90;;;;;;6058220;28;94179;-68
2023/05/31 15:52:34;;;;;;;3.88;3.42;;;22.90;76.10;;;;;;6048202;28;94142;-68
2023/05/31 15:55:36;;;;;;;3.67;3.30;;;22.80;76.40;;;;;;6063968;28;94159;-67